Ship Status Report: callsign BAREU60

sailwx.info

Track history (hours):
 
Tides and Currents Weather Stations Pressure Air Temp Water Temp Dewpoint Dewpoint Depression Visibility Wind Speed Wind Dir Waves Ship Positions

Callsign BAREU60 (name unknown)

Last reported at 2017-Sep-23 23:00 UTC. Time now 2017-Sep-23 23:59 UTC.
Position N 41°30' E 017°06'.

Barometer 1020.2 mb

Date/timePositionNaut miles runAvg speedWind from/ knotsBaromVisibWave heightAir tempDewpointWater temp
2017-Sep-23 23:00N 41°30' E 017°06'7 7.5 1020.2
2017-Sep-23 22:00N 41°24' E 017°00'1312.8 1020.3
2017-Sep-23 21:00N 41°12' E 016°54'6 1.2 1020.8
2017-Sep-23 16:00N 41°06' E 016°54'0 0.0 1020.6
2017-Sep-23 09:00N 41°06' E 016°54'8 1.9 1022.8
2017-Sep-23 05:00N 41°12' E 016°48'1818.1 1021.9
2017-Sep-23 04:00N 41°24' E 017°06'1312.8 1021.5
2017-Sep-23 03:00N 41°36' E 017°12'1312.8 1021.5
2017-Sep-23 02:00N 41°48' E 017°18'1110.8 1021.8
2017-Sep-23 01:00N 41°54' E 017°30'1312.8 1021.7
2017-Sep-23 00:00N 42°06' E 017°36'1312.8 1021.8
2017-Sep-22 23:00N 42°18' E 017°42'7 7.5 1021.7
2017-Sep-22 22:00N 42°24' E 017°48'1514.9 1021.8
2017-Sep-22 21:00N 42°36' E 018°00'7 3.7 1021.6
2017-Sep-22 19:00N 42°42' E 018°06'0 0.0 1021.1
2017-Sep-22 18:00N 42°42' E 018°06'0 0.0 1020.7
2017-Sep-22 10:00N 42°42' E 018°06'0 0.0 1020.5
2017-Sep-22 09:00N 42°42' E 018°06'11 2.7 1020.7
2017-Sep-22 05:00N 42°36' E 017°54'2020.1 1019.8
2017-Sep-22 04:00N 42°18' E 017°42'1312.8 1019.9
2017-Sep-22 03:00N 42°06' E 017°36'7 7.5 1019.5
2017-Sep-22 02:00N 42°00' E 017°30'1312.8 1019.1
2017-Sep-22 01:00N 41°48' E 017°24'7 7.5 1019.1
2017-Sep-22 00:00N 41°42' E 017°18'1515.0 1019.2
2017-Sep-21 23:00N 41°30' E 017°06'7 7.5 1019.4
2017-Sep-21 22:00N 41°24' E 017°00'1312.8 1019.4
2017-Sep-21 21:00N 41°12' E 016°54'6 1.0 1019.8
2017-Sep-21 15:00N 41°06' E 016°54'0 0.0 1018.7
2017-Sep-21 09:00N 41°06' E 016°54'8 1.9 1018.6
2017-Sep-21 05:00N 41°12' E 017°00'1818.1 1015.8
2017-Sep-21 04:00N 41°24' E 017°18'1919.0 1014.9
2017-Sep-21 03:00N 41°30' E 017°42'1514.7 1014.1
2017-Sep-21 02:00N 41°36' E 018°00'1818.0
2017-Sep-21 01:00N 41°48' E 018°18'9 8.9
2017-Sep-21 00:00N 41°48' E 018°30'1110.8 1013.0
2017-Sep-20 23:00N 41°54' E 018°42'1110.8 1012.8
2017-Sep-20 22:00N 42°00' E 018°54'1110.7 1012.7
2017-Sep-20 21:00N 42°06' E 019°06'9 0.6 1012.8
2017-Sep-20 05:00N 42°06' E 018°54'1818.0 1009.6
2017-Sep-20 04:00N 41°54' E 018°36'1918.9 1009.3
2017-Sep-20 03:00N 41°48' E 018°12'1818.0 1009.1
2017-Sep-20 02:00N 41°36' E 017°54'1110.8 1009.2
2017-Sep-20 01:00N 41°30' E 017°42'1110.8 1009.3
2017-Sep-20 00:00N 41°24' E 017°30'1110.8 1009.9
2017-Sep-19 23:00N 41°18' E 017°18'1514.8 1010.3
2017-Sep-19 22:00N 41°12' E 017°00'1110.8 1010.9
2017-Sep-19 21:00N 41°06' E 016°48'13 0.8 1011.1
2017-Sep-19 05:00N 41°18' E 016°54'1515.0 1011.9
2017-Sep-19 04:00N 41°30' E 017°06'1312.8 1012.1
2017-Sep-19 03:00N 41°42' E 017°12'1110.8 1012.1
2017-Sep-19 02:00N 41°48' E 017°24'1312.8 1011.9
2017-Sep-19 01:00N 42°00' E 017°30'7 7.5 1012.5
2017-Sep-19 00:00N 42°06' E 017°36'1312.8 1012.9
2017-Sep-18 23:00N 42°18' E 017°42'7 7.5 1013.7
2017-Sep-18 22:00N 42°24' E 017°48'1514.9 1013.6
2017-Sep-18 21:00N 42°36' E 018°00'7 1.9 1013.8
2017-Sep-18 17:00N 42°42' E 018°06'0 0.0 1013.6
2017-Sep-18 12:00N 42°42' E 018°06'0 0.0 1014.8
2017-Sep-18 06:00N 42°42' E 018°06'1514.9 1015.4
2017-Sep-18 05:00N 42°30' E 017°54'1312.8 1014.8
2017-Sep-18 04:00N 42°18' E 017°48'7 7.5 1015.1
2017-Sep-18 03:00N 42°12' E 017°42'1514.9 1015.2
2017-Sep-18 02:00N 42°00' E 017°30'7 7.5 1015.3
2017-Sep-18 01:00N 41°54' E 017°24'1312.8 1015.2
2017-Sep-18 00:00N 41°42' E 017°18'7 7.5 1015.2
2017-Sep-17 23:00N 41°36' E 017°12'1515.0 1015.7
2017-Sep-17 22:00N 41°24' E 017°00'8 7.5 1015.9
2017-Sep-17 21:00N 41°18' E 016°54'12 4.0 1015.7
2017-Sep-17 18:00N 41°06' E 016°54'5 4.5 1015.2
2017-Sep-17 17:00N 41°06' E 016°48'2020.1 1014.4
2017-Sep-17 16:00N 41°24' E 017°00'1515.0 1013.6
2017-Sep-17 15:00N 41°36' E 017°12'2020.1 1013.1
2017-Sep-17 14:00N 41°54' E 017°24'1515.0 1012.9
2017-Sep-17 13:00N 42°06' E 017°36'2020.1 1012.7
2017-Sep-17 12:00N 42°24' E 017°48'1514.9 1013.1
2017-Sep-17 11:00N 42°36' E 018°00'0 0.0 1013.7
2017-Sep-17 05:00N 42°36' E 018°00'1514.9 1012.4
2017-Sep-17 04:00N 42°24' E 017°48'1312.8 1012.6
2017-Sep-17 03:00N 42°12' E 017°42'1514.9 1012.9
2017-Sep-17 02:00N 42°00' E 017°30'7 7.5 1014.3
2017-Sep-17 01:00N 41°54' E 017°24'1312.8 1012.6
2017-Sep-17 00:00N 41°42' E 017°18'1515.0 1011.9
2017-Sep-16 23:00N 41°30' E 017°06'7 7.5 1012.0
2017-Sep-16 22:00N 41°24' E 017°00'1312.8 1012.0
2017-Sep-16 21:00N 41°12' E 016°54'5 0.3 1012.1
2017-Sep-16 06:00N 41°12' E 016°48'8 7.5 1011.6
2017-Sep-16 05:00N 41°18' E 016°54'1515.0 1011.1
2017-Sep-16 04:00N 41°30' E 017°06'1312.8 1011.0
2017-Sep-16 03:00N 41°42' E 017°12'1110.8 1011.1
2017-Sep-16 02:00N 41°48' E 017°24'1312.8 1011.6
2017-Sep-16 01:00N 42°00' E 017°30'7 7.5 1012.2
2017-Sep-16 00:00N 42°06' E 017°36'1312.8 1012.3
2017-Sep-15 23:00N 42°18' E 017°42'1514.9 1012.9
2017-Sep-15 22:00N 42°30' E 017°54'7 7.5 1013.5
2017-Sep-15 21:00N 42°36' E 018°00'0 0.0 1013.9
2017-Sep-15 05:00N 42°36' E 018°00'1514.9 1014.0
2017-Sep-15 04:00N 42°24' E 017°48'1312.8 1013.4
2017-Sep-15 03:00N 42°12' E 017°42'7 7.5 1013.6
2017-Sep-15 02:00N 42°06' E 017°36'1515.0 1013.4
2017-Sep-15 01:00N 41°54' E 017°24'1312.8 1013.4
2017-Sep-15 00:00N 41°42' E 017°18'7 7.5 1013.4
2017-Sep-14 23:00N 41°36' E 017°12'1515.0 1013.6
2017-Sep-14 22:00N 41°24' E 017°00'1312.8 1013.7
2017-Sep-14 21:00N 41°12' E 016°54'6 0.5 1014.0
2017-Sep-14 10:00N 41°06' E 016°54'8 1.5 1017.2
2017-Sep-14 05:00N 41°12' E 017°00'1818.1 1018.8
2017-Sep-14 04:00N 41°24' E 017°18'1514.8 1018.8
2017-Sep-14 03:00N 41°30' E 017°36'1918.9 1019.1
2017-Sep-14 02:00N 41°36' E 018°00'1818.0 1019.3
2017-Sep-14 01:00N 41°48' E 018°18'1514.7 1019.8
2017-Sep-14 00:00N 41°54' E 018°36'1110.8 1020.1
2017-Sep-13 23:00N 42°00' E 018°48'   1020.1
Track history (hours):
 
Tides and Currents Weather Stations Pressure Air Temp Water Temp Dewpoint Dewpoint Depression Visibility Wind Speed Wind Dir Waves Ship Positions

Callsign BAREU60 (name unknown)

Last reported at 2017-Sep-23 23:00 UTC. Time now 2017-Sep-23 23:59 UTC.
Position N 41°30' E 017°06'.

Barometer 1020.2 mb

Date/timePositionNaut miles runAvg speedWind from/ knotsBaromVisibWave heightAir tempDewpointWater temp
2017-Sep-23 23:00N 41°30' E 017°06'7 7.5 1020.2
2017-Sep-23 22:00N 41°24' E 017°00'1312.8 1020.3
2017-Sep-23 21:00N 41°12' E 016°54'6 1.2 1020.8
2017-Sep-23 16:00N 41°06' E 016°54'0 0.0 1020.6
2017-Sep-23 09:00N 41°06' E 016°54'8 1.9 1022.8
2017-Sep-23 05:00N 41°12' E 016°48'1818.1 1021.9
2017-Sep-23 04:00N 41°24' E 017°06'1312.8 1021.5
2017-Sep-23 03:00N 41°36' E 017°12'1312.8 1021.5
2017-Sep-23 02:00N 41°48' E 017°18'1110.8 1021.8
2017-Sep-23 01:00N 41°54' E 017°30'1312.8 1021.7
2017-Sep-23 00:00N 42°06' E 017°36'1312.8 1021.8
2017-Sep-22 23:00N 42°18' E 017°42'7 7.5 1021.7
2017-Sep-22 22:00N 42°24' E 017°48'1514.9 1021.8
2017-Sep-22 21:00N 42°36' E 018°00'7 3.7 1021.6
2017-Sep-22 19:00N 42°42' E 018°06'0 0.0 1021.1
2017-Sep-22 18:00N 42°42' E 018°06'0 0.0 1020.7
2017-Sep-22 10:00N 42°42' E 018°06'0 0.0 1020.5
2017-Sep-22 09:00N 42°42' E 018°06'11 2.7 1020.7
2017-Sep-22 05:00N 42°36' E 017°54'2020.1 1019.8
2017-Sep-22 04:00N 42°18' E 017°42'1312.8 1019.9
2017-Sep-22 03:00N 42°06' E 017°36'7 7.5 1019.5
2017-Sep-22 02:00N 42°00' E 017°30'1312.8 1019.1
2017-Sep-22 01:00N 41°48' E 017°24'7 7.5 1019.1
2017-Sep-22 00:00N 41°42' E 017°18'1515.0 1019.2
2017-Sep-21 23:00N 41°30' E 017°06'7 7.5 1019.4
2017-Sep-21 22:00N 41°24' E 017°00'1312.8 1019.4
2017-Sep-21 21:00N 41°12' E 016°54'6 1.0 1019.8
2017-Sep-21 15:00N 41°06' E 016°54'0 0.0 1018.7
2017-Sep-21 09:00N 41°06' E 016°54'8 1.9 1018.6
2017-Sep-21 05:00N 41°12' E 017°00'1818.1 1015.8
2017-Sep-21 04:00N 41°24' E 017°18'1919.0 1014.9
2017-Sep-21 03:00N 41°30' E 017°42'1514.7 1014.1
2017-Sep-21 02:00N 41°36' E 018°00'1818.0
2017-Sep-21 01:00N 41°48' E 018°18'9 8.9
2017-Sep-21 00:00N 41°48' E 018°30'1110.8 1013.0
2017-Sep-20 23:00N 41°54' E 018°42'1110.8 1012.8
2017-Sep-20 22:00N 42°00' E 018°54'1110.7 1012.7
2017-Sep-20 21:00N 42°06' E 019°06'9 0.6 1012.8
2017-Sep-20 05:00N 42°06' E 018°54'1818.0 1009.6
2017-Sep-20 04:00N 41°54' E 018°36'1918.9 1009.3
2017-Sep-20 03:00N 41°48' E 018°12'1818.0 1009.1
2017-Sep-20 02:00N 41°36' E 017°54'1110.8 1009.2
2017-Sep-20 01:00N 41°30' E 017°42'1110.8 1009.3
2017-Sep-20 00:00N 41°24' E 017°30'1110.8 1009.9
2017-Sep-19 23:00N 41°18' E 017°18'1514.8 1010.3
2017-Sep-19 22:00N 41°12' E 017°00'1110.8 1010.9
2017-Sep-19 21:00N 41°06' E 016°48'13 0.8 1011.1
2017-Sep-19 05:00N 41°18' E 016°54'1515.0 1011.9
2017-Sep-19 04:00N 41°30' E 017°06'1312.8 1012.1
2017-Sep-19 03:00N 41°42' E 017°12'1110.8 1012.1
2017-Sep-19 02:00N 41°48' E 017°24'1312.8 1011.9
2017-Sep-19 01:00N 42°00' E 017°30'7 7.5 1012.5
2017-Sep-19 00:00N 42°06' E 017°36'1312.8 1012.9
2017-Sep-18 23:00N 42°18' E 017°42'7 7.5 1013.7
2017-Sep-18 22:00N 42°24' E 017°48'1514.9 1013.6
2017-Sep-18 21:00N 42°36' E 018°00'7 1.9 1013.8
2017-Sep-18 17:00N 42°42' E 018°06'0 0.0 1013.6
2017-Sep-18 12:00N 42°42' E 018°06'0 0.0 1014.8
2017-Sep-18 06:00N 42°42' E 018°06'1514.9 1015.4
2017-Sep-18 05:00N 42°30' E 017°54'1312.8 1014.8
2017-Sep-18 04:00N 42°18' E 017°48'7 7.5 1015.1
2017-Sep-18 03:00N 42°12' E 017°42'1514.9 1015.2
2017-Sep-18 02:00N 42°00' E 017°30'7 7.5 1015.3
2017-Sep-18 01:00N 41°54' E 017°24'1312.8 1015.2
2017-Sep-18 00:00N 41°42' E 017°18'7 7.5 1015.2
2017-Sep-17 23:00N 41°36' E 017°12'1515.0 1015.7
2017-Sep-17 22:00N 41°24' E 017°00'8 7.5 1015.9
2017-Sep-17 21:00N 41°18' E 016°54'12 4.0 1015.7
2017-Sep-17 18:00N 41°06' E 016°54'5 4.5 1015.2
2017-Sep-17 17:00N 41°06' E 016°48'2020.1 1014.4
2017-Sep-17 16:00N 41°24' E 017°00'1515.0 1013.6
2017-Sep-17 15:00N 41°36' E 017°12'2020.1 1013.1
2017-Sep-17 14:00N 41°54' E 017°24'1515.0 1012.9
2017-Sep-17 13:00N 42°06' E 017°36'2020.1 1012.7
2017-Sep-17 12:00N 42°24' E 017°48'1514.9 1013.1
2017-Sep-17 11:00N 42°36' E 018°00'0 0.0 1013.7
2017-Sep-17 05:00N 42°36' E 018°00'1514.9 1012.4
2017-Sep-17 04:00N 42°24' E 017°48'1312.8 1012.6
2017-Sep-17 03:00N 42°12' E 017°42'1514.9 1012.9
2017-Sep-17 02:00N 42°00' E 017°30'7 7.5 1014.3
2017-Sep-17 01:00N 41°54' E 017°24'1312.8 1012.6
2017-Sep-17 00:00N 41°42' E 017°18'1515.0 1011.9
2017-Sep-16 23:00N 41°30' E 017°06'7 7.5 1012.0
2017-Sep-16 22:00N 41°24' E 017°00'1312.8 1012.0
2017-Sep-16 21:00N 41°12' E 016°54'5 0.3 1012.1
2017-Sep-16 06:00N 41°12' E 016°48'8 7.5 1011.6
2017-Sep-16 05:00N 41°18' E 016°54'1515.0 1011.1
2017-Sep-16 04:00N 41°30' E 017°06'1312.8 1011.0
2017-Sep-16 03:00N 41°42' E 017°12'1110.8 1011.1
2017-Sep-16 02:00N 41°48' E 017°24'1312.8 1011.6
2017-Sep-16 01:00N 42°00' E 017°30'7 7.5 1012.2
2017-Sep-16 00:00N 42°06' E 017°36'1312.8 1012.3
2017-Sep-15 23:00N 42°18' E 017°42'1514.9 1012.9
2017-Sep-15 22:00N 42°30' E 017°54'7 7.5 1013.5
2017-Sep-15 21:00N 42°36' E 018°00'0 0.0 1013.9
2017-Sep-15 05:00N 42°36' E 018°00'1514.9 1014.0
2017-Sep-15 04:00N 42°24' E 017°48'1312.8 1013.4
2017-Sep-15 03:00N 42°12' E 017°42'7 7.5 1013.6
2017-Sep-15 02:00N 42°06' E 017°36'1515.0 1013.4
2017-Sep-15 01:00N 41°54' E 017°24'1312.8 1013.4
2017-Sep-15 00:00N 41°42' E 017°18'7 7.5 1013.4
2017-Sep-14 23:00N 41°36' E 017°12'1515.0 1013.6
2017-Sep-14 22:00N 41°24' E 017°00'1312.8 1013.7
2017-Sep-14 21:00N 41°12' E 016°54'6 0.5 1014.0
2017-Sep-14 10:00N 41°06' E 016°54'8 1.5 1017.2
2017-Sep-14 05:00N 41°12' E 017°00'1818.1 1018.8
2017-Sep-14 04:00N 41°24' E 017°18'1514.8 1018.8
2017-Sep-14 03:00N 41°30' E 017°36'1918.9 1019.1
2017-Sep-14 02:00N 41°36' E 018°00'1818.0 1019.3
2017-Sep-14 01:00N 41°48' E 018°18'1514.7 1019.8
2017-Sep-14 00:00N 41°54' E 018°36'1110.8 1020.1
2017-Sep-13 23:00N 42°00' E 018°48'   1020.1

Dump ship's entire track history